sensor_id;sensor_type;location;lat;lon;timestamp;pressure;altitude;pressure_sealevel;temperature;humidity
38452;BME280;24231;52.514;13.438;2023-03-13T00:07:22;100168.86;;;6.54;81.14
38452;BME280;24231;52.514;13.438;2023-03-13T00:09:49;100160.48;;;6.48;79.35
38452;BME280;24231;52.514;13.438;2023-03-13T00:12:17;100166.21;;;6.33;82.28
38452;BME280;24231;52.514;13.438;2023-03-13T00:14:44;100159.57;;;6.37;81.92
38452;BME280;24231;52.514;13.438;2023-03-13T00:17:12;100158.95;;;5.76;84.06
38452;BME280;24231;52.514;13.438;2023-03-13T00:19:44;100155.89;;;5.83;84.81
38452;BME280;24231;52.514;13.438;2023-03-13T00:26:15;100148.58;;;6.12;84.19
38452;BME280;24231;52.514;13.438;2023-03-13T00:28:43;100148.20;;;6.76;80.80
38452;BME280;24231;52.514;13.438;2023-03-13T00:31:12;100148.39;;;6.48;82.02
38452;BME280;24231;52.514;13.438;2023-03-13T00:33:42;100148.00;;;7.02;78.58
38452;BME280;24231;52.514;13.438;2023-03-13T00:36:11;100144.53;;;6.75;80.32
38452;BME280;24231;52.514;13.438;2023-03-13T00:39:29;100140.71;;;7.31;78.48
38452;BME280;24231;52.514;13.438;2023-03-13T00:41:56;100135.93;;;7.09;80.23
38452;BME280;24231;52.514;13.438;2023-03-13T00:44:23;100134.69;;;6.78;79.93
38452;BME280;24231;52.514;13.438;2023-03-13T00:46:50;100126.82;;;6.65;81.38
38452;BME280;24231;52.514;13.438;2023-03-13T00:49:17;100125.17;;;6.48;83.60
38452;BME280;24231;52.514;13.438;2023-03-13T00:51:44;100120.83;;;6.59;82.38
38452;BME280;24231;52.514;13.438;2023-03-13T00:54:11;100113.42;;;6.69;82.86
38452;BME280;24231;52.514;13.438;2023-03-13T00:56:38;100112.39;;;6.69;82.53
38452;BME280;24231;52.514;13.438;2023-03-13T00:59:05;100111.96;;;6.72;80.64
38452;BME280;24231;52.514;13.438;2023-03-13T01:01:34;100109.69;;;6.76;79.55
38452;BME280;24231;52.514;13.438;2023-03-13T01:04:03;100111.19;;;6.35;83.11
38452;BME280;24231;52.514;13.438;2023-03-13T01:06:32;100105.27;;;7.01;82.43
38452;BME280;24231;52.514;13.438;2023-03-13T01:09:03;100101.53;;;6.73;82.48
38452;BME280;24231;52.514;13.438;2023-03-13T01:11:31;100100.25;;;7.28;78.91
38452;BME280;24231;52.514;13.438;2023-03-13T01:14:01;100096.06;;;6.77;81.44
38452;BME280;24231;52.514;13.438;2023-03-13T01:16:30;100100.46;;;6.68;81.37
38452;BME280;24231;52.514;13.438;2023-03-13T01:19:00;100100.34;;;7.35;79.58
38452;BME280;24231;52.514;13.438;2023-03-13T01:21:28;100098.50;;;7.91;76.15
38452;BME280;24231;52.514;13.438;2023-03-13T01:23:55;100102.74;;;6.97;80.25
38452;BME280;24231;52.514;13.438;2023-03-13T01:26:23;100098.57;;;6.89;79.89
38452;BME280;24231;52.514;13.438;2023-03-13T01:28:50;100101.79;;;7.74;76.97
38452;BME280;24231;52.514;13.438;2023-03-13T01:31:19;100105.10;;;7.09;79.01
38452;BME280;24231;52.514;13.438;2023-03-13T01:33:48;100106.47;;;6.51;82.15
38452;BME280;24231;52.514;13.438;2023-03-13T01:36:21;100105.37;;;6.69;81.90
38452;BME280;24231;52.514;13.438;2023-03-13T01:38:49;100104.81;;;7.20;79.09
38452;BME280;24231;52.514;13.438;2023-03-13T01:41:17;100102.01;;;7.16;80.50
38452;BME280;24231;52.514;13.438;2023-03-13T01:43:44;100098.79;;;7.34;78.48
38452;BME280;24231;52.514;13.438;2023-03-13T01:46:14;100092.33;;;6.77;80.77
38452;BME280;24231;52.514;13.438;2023-03-13T01:48:46;100087.05;;;7.13;80.44
38452;BME280;24231;52.514;13.438;2023-03-13T01:51:21;100091.19;;;7.22;77.85
38452;BME280;24231;52.514;13.438;2023-03-13T01:53:52;100086.37;;;7.50;77.89
38452;BME280;24231;52.514;13.438;2023-03-13T01:56:25;100078.37;;;7.40;76.04
38452;BME280;24231;52.514;13.438;2023-03-13T01:58:56;100075.36;;;7.47;77.31
38452;BME280;24231;52.514;13.438;2023-03-13T02:01:24;100072.43;;;6.74;79.38
38452;BME280;24231;52.514;13.438;2023-03-13T02:03:52;100072.35;;;6.45;81.37
38452;BME280;24231;52.514;13.438;2023-03-13T02:06:20;100070.43;;;7.59;76.57
38452;BME280;24231;52.514;13.438;2023-03-13T02:08:50;100069.08;;;7.07;78.86
38452;BME280;24231;52.514;13.438;2023-03-13T02:11:26;100066.51;;;7.43;76.82
38452;BME280;24231;52.514;13.438;2023-03-13T02:13:56;100059.23;;;7.59;76.80
38452;BME280;24231;52.514;13.438;2023-03-13T02:16:25;100052.28;;;7.44;74.64
38452;BME280;24231;52.514;13.438;2023-03-13T02:18:53;100044.97;;;6.75;78.31
38452;BME280;24231;52.514;13.438;2023-03-13T02:21:31;100043.85;;;7.06;78.74
38452;BME280;24231;52.514;13.438;2023-03-13T02:24:09;100043.51;;;7.44;75.67
38452;BME280;24231;52.514;13.438;2023-03-13T02:26:39;100040.46;;;6.44;80.36
38452;BME280;24231;52.514;13.438;2023-03-13T02:29:07;100038.98;;;7.32;76.12
38452;BME280;24231;52.514;13.438;2023-03-13T02:31:35;100038.16;;;6.68;79.99
38452;BME280;24231;52.514;13.438;2023-03-13T02:34:03;100028.60;;;8.86;70.83
38452;BME280;24231;52.514;13.438;2023-03-13T02:36:30;100029.12;;;6.64;79.80
38452;BME280;24231;52.514;13.438;2023-03-13T02:39:02;100029.00;;;6.68;78.40
38452;BME280;24231;52.514;13.438;2023-03-13T02:41:30;100022.05;;;6.60;79.92
38452;BME280;24231;52.514;13.438;2023-03-13T02:43:59;100022.98;;;6.68;79.50
38452;BME280;24231;52.514;13.438;2023-03-13T02:46:26;100020.65;;;6.78;79.41
38452;BME280;24231;52.514;13.438;2023-03-13T02:48:55;100015.03;;;6.73;79.80
38452;BME280;24231;52.514;13.438;2023-03-13T02:51:27;100011.10;;;6.45;81.51
38452;BME280;24231;52.514;13.438;2023-03-13T02:53:59;100003.01;;;6.25;82.74
38452;BME280;24231;52.514;13.438;2023-03-13T02:56:29;99996.66;;;6.21;83.84
38452;BME280;24231;52.514;13.438;2023-03-13T02:58:57;99996.67;;;6.49;82.63
38452;BME280;24231;52.514;13.438;2023-03-13T03:01:24;99992.24;;;6.68;80.38
38452;BME280;24231;52.514;13.438;2023-03-13T03:03:52;99986.62;;;7.43;78.65
38452;BME280;24231;52.514;13.438;2023-03-13T03:06:19;99985.12;;;7.21;78.71
38452;BME280;24231;52.514;13.438;2023-03-13T03:08:46;99983.89;;;6.81;79.48
38452;BME280;24231;52.514;13.438;2023-03-13T03:11:13;99976.91;;;6.54;80.11
38452;BME280;24231;52.514;13.438;2023-03-13T03:13:40;99974.72;;;7.34;78.73
38452;BME280;24231;52.514;13.438;2023-03-13T03:16:09;99965.56;;;6.50;80.71
38452;BME280;24231;52.514;13.438;2023-03-13T03:18:38;99963.00;;;6.57;82.07
38452;BME280;24231;52.514;13.438;2023-03-13T03:21:05;99963.99;;;6.63;81.87
38452;BME280;24231;52.514;13.438;2023-03-13T03:23:33;99962.02;;;6.89;80.67
38452;BME280;24231;52.514;13.438;2023-03-13T03:26:01;99962.36;;;6.54;81.10
38452;BME280;24231;52.514;13.438;2023-03-13T03:28:28;99960.21;;;6.67;80.73
38452;BME280;24231;52.514;13.438;2023-03-13T03:30:56;99960.15;;;6.82;81.56
38452;BME280;24231;52.514;13.438;2023-03-13T03:33:23;99954.48;;;7.85;77.23
38452;BME280;24231;52.514;13.438;2023-03-13T03:35:50;99954.06;;;7.26;78.24
38452;BME280;24231;52.514;13.438;2023-03-13T16:54:17;98992.40;;;14.53;66.67
38452;BME280;24231;52.514;13.438;2023-03-13T16:56:54;98995.59;;;14.26;65.03
38452;BME280;24231;52.514;13.438;2023-03-13T16:59:20;98996.29;;;14.60;63.64
38452;BME280;24231;52.514;13.438;2023-03-13T17:01:46;98986.51;;;15.10;61.15
38452;BME280;24231;52.514;13.438;2023-03-13T17:04:13;98982.71;;;14.63;62.38
38452;BME280;24231;52.514;13.438;2023-03-13T17:06:41;98975.24;;;14.32;62.73
38452;BME280;24231;52.514;13.438;2023-03-13T17:09:10;98977.75;;;14.17;63.75
38452;BME280;24231;52.514;13.438;2023-03-13T17:11:37;98977.42;;;13.60;65.60
38452;BME280;24231;52.514;13.438;2023-03-13T17:14:06;98980.89;;;13.54;66.45
38452;BME280;24231;52.514;13.438;2023-03-13T17:16:35;98985.42;;;13.09;68.01
38452;BME280;24231;52.514;13.438;2023-03-13T17:19:01;98980.41;;;13.82;65.35
38452;BME280;24231;52.514;13.438;2023-03-13T17:21:29;98974.44;;;13.80;65.09
38452;BME280;24231;52.514;13.438;2023-03-13T17:23:56;98973.15;;;14.67;61.69
38452;BME280;24231;52.514;13.438;2023-03-13T17:26:27;98977.47;;;13.80;64.85
38452;BME280;24231;52.514;13.438;2023-03-13T17:28:55;98992.54;;;12.71;69.57
38452;BME280;24231;52.514;13.438;2023-03-13T17:31:23;98989.80;;;13.53;66.45
38452;BME280;24231;52.514;13.438;2023-03-13T17:33:50;98996.13;;;13.57;65.48
38452;BME280;24231;52.514;13.438;2023-03-13T17:36:19;98991.33;;;14.08;64.16
38452;BME280;24231;52.514;13.438;2023-03-13T17:38:47;98986.14;;;13.25;67.38
38452;BME280;24231;52.514;13.438;2023-03-13T17:41:16;98991.71;;;13.97;64.76
38452;BME280;24231;52.514;13.438;2023-03-13T17:43:43;98992.20;;;13.25;67.13
38452;BME280;24231;52.514;13.438;2023-03-13T17:46:14;98987.42;;;14.00;64.82
38452;BME280;24231;52.514;13.438;2023-03-13T17:48:41;98991.04;;;13.22;66.57
38452;BME280;24231;52.514;13.438;2023-03-13T17:51:14;98997.60;;;13.10;67.93
38452;BME280;24231;52.514;13.438;2023-03-13T17:53:41;98982.21;;;12.98;67.94
38452;BME280;24231;52.514;13.438;2023-03-13T17:56:13;98970.80;;;13.50;65.86
38452;BME280;24231;52.514;13.438;2023-03-13T17:58:39;98984.78;;;13.18;67.47
38452;BME280;24231;52.514;13.438;2023-03-13T18:01:07;98988.53;;;12.81;68.93
38452;BME280;24231;52.514;13.438;2023-03-13T18:03:34;98989.20;;;13.10;67.84
38452;BME280;24231;52.514;13.438;2023-03-13T18:06:00;98985.20;;;13.12;67.56
38452;BME280;24231;52.514;13.438;2023-03-13T18:08:27;98970.75;;;12.66;70.44
38452;BME280;24231;52.514;13.438;2023-03-13T18:10:53;98962.91;;;13.11;68.33
38452;BME280;24231;52.514;13.438;2023-03-13T18:13:19;98969.49;;;13.53;65.96
38452;BME280;24231;52.514;13.438;2023-03-13T18:16:27;98978.17;;;13.31;68.92
38452;BME280;24231;52.514;13.438;2023-03-13T18:18:54;98973.50;;;12.53;70.94
38452;BME280;24231;52.514;13.438;2023-03-13T18:21:21;98959.87;;;12.83;69.31
38452;BME280;24231;52.514;13.438;2023-03-13T18:23:48;98961.38;;;12.72;70.44
38452;BME280;24231;52.514;13.438;2023-03-13T18:26:24;98965.95;;;12.76;70.04
38452;BME280;24231;52.514;13.438;2023-03-13T18:28:50;98950.91;;;12.83;69.53
38452;BME280;24231;52.514;13.438;2023-03-13T18:31:17;98947.09;;;12.66;69.75
38452;BME280;24231;52.514;13.438;2023-03-13T18:33:43;98954.33;;;12.81;69.70
38452;BME280;24231;52.514;13.438;2023-03-13T18:36:15;98954.63;;;13.35;67.58
38452;BME280;24231;52.514;13.438;2023-03-13T18:38:41;98954.19;;;12.88;69.14
38452;BME280;24231;52.514;13.438;2023-03-13T18:41:07;98952.15;;;13.36;67.95
38452;BME280;24231;52.514;13.438;2023-03-13T18:43:33;98951.24;;;13.56;66.66
38452;BME280;24231;52.514;13.438;2023-03-13T18:46:01;98946.81;;;13.42;67.84
38452;BME280;24231;52.514;13.438;2023-03-13T18:48:27;98940.00;;;12.94;68.62
38452;BME280;24231;52.514;13.438;2023-03-13T18:50:53;98928.42;;;13.30;67.69
38452;BME280;24231;52.514;13.438;2023-03-13T18:53:19;98932.93;;;13.79;66.27
38452;BME280;24231;52.514;13.438;2023-03-13T18:55:45;98928.08;;;13.40;67.25
38452;BME280;24231;52.514;13.438;2023-03-13T18:58:12;98937.03;;;13.75;65.84
38452;BME280;24231;52.514;13.438;2023-03-13T19:00:38;98944.16;;;13.77;65.94
38452;BME280;24231;52.514;13.438;2023-03-13T19:03:05;98939.48;;;13.33;67.63
38452;BME280;24231;52.514;13.438;2023-03-13T19:05:31;98940.28;;;12.30;71.70
38452;BME280;24231;52.514;13.438;2023-03-13T19:07:57;98943.99;;;12.81;69.75
38452;BME280;24231;52.514;13.438;2023-03-13T19:10:27;98930.20;;;12.78;69.42
38452;BME280;24231;52.514;13.438;2023-03-13T19:12:54;98921.58;;;13.23;67.77
38452;BME280;24231;52.514;13.438;2023-03-13T19:15:23;98925.80;;;13.83;64.84
38452;BME280;24231;52.514;13.438;2023-03-13T19:17:51;98928.18;;;13.69;65.18
38452;BME280;24231;52.514;13.438;2023-03-13T19:20:19;98920.59;;;12.61;70.23
38452;BME280;24231;52.514;13.438;2023-03-13T19:22:46;98911.65;;;12.46;71.53
38452;BME280;24231;52.514;13.438;2023-03-13T19:25:13;98900.18;;;11.97;73.49
38452;BME280;24231;52.514;13.438;2023-03-13T19:27:39;98876.46;;;12.88;70.06
38452;BME280;24231;52.514;13.438;2023-03-13T19:30:13;98887.42;;;13.87;65.46
38452;BME280;24231;52.514;13.438;2023-03-13T19:32:40;98896.47;;;12.92;68.03
38452;BME280;24231;52.514;13.438;2023-03-13T19:35:07;98909.81;;;13.38;67.07
38452;BME280;24231;52.514;13.438;2023-03-13T19:37:33;98906.77;;;13.41;66.55
38452;BME280;24231;52.514;13.438;2023-03-13T19:39:59;98897.27;;;13.11;67.84
38452;BME280;24231;52.514;13.438;2023-03-13T19:42:26;98899.85;;;12.82;69.12
38452;BME280;24231;52.514;13.438;2023-03-13T19:44:52;98898.36;;;12.63;70.09
38452;BME280;24231;52.514;13.438;2023-03-13T19:47:18;98888.81;;;12.61;70.06
38452;BME280;24231;52.514;13.438;2023-03-13T19:49:44;98889.40;;;12.76;69.79
38452;BME280;24231;52.514;13.438;2023-03-13T19:52:10;98887.42;;;12.42;71.16
38452;BME280;24231;52.514;13.438;2023-03-13T19:54:36;98890.41;;;12.69;69.78
38452;BME280;24231;52.514;13.438;2023-03-13T19:57:03;98890.88;;;12.71;69.16
38452;BME280;24231;52.514;13.438;2023-03-13T19:59:30;98900.75;;;13.07;70.21
38452;BME280;24231;52.514;13.438;2023-03-13T20:01:58;98903.14;;;12.99;70.62
38452;BME280;24231;52.514;13.438;2023-03-13T20:04:25;98901.48;;;12.95;71.25
38452;BME280;24231;52.514;13.438;2023-03-13T20:06:52;98903.48;;;12.94;71.91
38452;BME280;24231;52.514;13.438;2023-03-13T20:09:19;98894.70;;;12.20;74.54
38452;BME280;24231;52.514;13.438;2023-03-13T20:11:47;98882.99;;;13.24;70.35
38452;BME280;24231;52.514;13.438;2023-03-13T20:14:14;98877.64;;;13.08;70.83
38452;BME280;24231;52.514;13.438;2023-03-13T20:16:41;98881.43;;;12.71;73.77
38452;BME280;24231;52.514;13.438;2023-03-13T20:19:09;98879.79;;;12.63;73.05
38452;BME280;24231;52.514;13.438;2023-03-13T20:21:37;98872.18;;;12.92;72.10
38452;BME280;24231;52.514;13.438;2023-03-13T20:24:04;98874.81;;;12.69;73.21
38452;BME280;24231;52.514;13.438;2023-03-13T20:26:32;98863.43;;;13.89;68.95
38452;BME280;24231;52.514;13.438;2023-03-13T20:28:59;98860.80;;;12.68;74.13
38452;BME280;24231;52.514;13.438;2023-03-13T20:31:28;98862.49;;;12.78;73.19
38452;BME280;24231;52.514;13.438;2023-03-13T20:33:57;98858.54;;;13.07;71.41
38452;BME280;24231;52.514;13.438;2023-03-13T20:36:26;98853.78;;;13.64;69.03
38452;BME280;24231;52.514;13.438;2023-03-13T20:38:53;98856.38;;;12.83;72.82
38452;BME280;24231;52.514;13.438;2023-03-13T20:41:21;98857.46;;;12.80;73.59
38452;BME280;24231;52.514;13.438;2023-03-13T20:43:48;98847.62;;;12.96;73.40
38452;BME280;24231;52.514;13.438;2023-03-13T20:46:15;98837.85;;;13.30;71.22
38452;BME280;24231;52.514;13.438;2023-03-13T20:48:42;98846.00;;;12.20;76.08
38452;BME280;24231;52.514;13.438;2023-03-13T20:51:09;98851.18;;;12.56;75.39
38452;BME280;24231;52.514;13.438;2023-03-13T20:53:38;98850.45;;;12.21;76.50
38452;BME280;24231;52.514;13.438;2023-03-13T20:56:09;98854.25;;;12.10;77.45
38452;BME280;24231;52.514;13.438;2023-03-13T20:58:37;98855.53;;;12.51;76.01
38452;BME280;24231;52.514;13.438;2023-03-13T21:01:05;98854.79;;;12.36;75.67
38452;BME280;24231;52.514;13.438;2023-03-13T21:03:33;98854.23;;;12.23;75.42
38452;BME280;24231;52.514;13.438;2023-03-13T21:06:07;98846.09;;;12.04;77.19
38452;BME280;24231;52.514;13.438;2023-03-13T21:08:35;98837.61;;;12.57;74.53
38452;BME280;24231;52.514;13.438;2023-03-13T21:11:02;98838.31;;;13.33;70.48
38452;BME280;24231;52.514;13.438;2023-03-13T21:13:29;98838.75;;;12.73;72.39
38452;BME280;24231;52.514;13.438;2023-03-13T21:16:00;98843.35;;;12.68;72.41
38452;BME280;24231;52.514;13.438;2023-03-13T21:18:28;98840.20;;;13.64;68.19
38452;BME280;24231;52.514;13.438;2023-03-13T21:21:01;98839.54;;;12.39;73.37
38452;BME280;24231;52.514;13.438;2023-03-13T21:23:28;98844.93;;;12.29;73.60
38452;BME280;24231;52.514;13.438;2023-03-13T21:25:59;98841.07;;;12.91;70.42
38452;BME280;24231;52.514;13.438;2023-03-13T21:28:27;98842.16;;;12.78;70.91
38452;BME280;24231;52.514;13.438;2023-03-13T21:30:57;98840.40;;;13.46;68.37
38452;BME280;24231;52.514;13.438;2023-03-13T21:33:25;98847.52;;;12.67;70.47
38452;BME280;24231;52.514;13.438;2023-03-13T21:35:52;98860.58;;;12.65;70.74
38452;BME280;24231;52.514;13.438;2023-03-13T21:38:19;98858.97;;;12.99;69.78
38452;BME280;24231;52.514;13.438;2023-03-13T21:40:47;98869.23;;;12.70;70.43
38452;BME280;24231;52.514;13.438;2023-03-13T21:43:15;98866.25;;;13.24;67.57
38452;BME280;24231;52.514;13.438;2023-03-13T21:45:41;98867.11;;;12.58;69.24
38452;BME280;24231;52.514;13.438;2023-03-13T21:48:11;98862.19;;;12.50;69.32
38452;BME280;24231;52.514;13.438;2023-03-13T21:50:39;98851.00;;;13.28;66.92
38452;BME280;24231;52.514;13.438;2023-03-13T21:53:06;98849.84;;;12.64;69.19
38452;BME280;24231;52.514;13.438;2023-03-13T21:55:34;98843.12;;;12.38;69.65
38452;BME280;24231;52.514;13.438;2023-03-13T21:58:02;98844.66;;;12.79;67.67
38452;BME280;24231;52.514;13.438;2023-03-13T22:00:29;98841.33;;;12.75;67.88
38452;BME280;24231;52.514;13.438;2023-03-13T22:02:56;98829.89;;;13.00;66.50
38452;BME280;24231;52.514;13.438;2023-03-13T22:05:23;98826.21;;;14.21;62.30
38452;BME280;24231;52.514;13.438;2023-03-13T22:07:54;98836.21;;;12.49;67.56
38452;BME280;24231;52.514;13.438;2023-03-13T22:10:21;98828.39;;;13.57;64.42
38452;BME280;24231;52.514;13.438;2023-03-13T22:12:49;98837.81;;;12.77;66.94
38452;BME280;24231;52.514;13.438;2023-03-13T22:15:16;98842.92;;;12.41;68.23
38452;BME280;24231;52.514;13.438;2023-03-13T22:17:43;98841.09;;;12.61;67.75
38452;BME280;24231;52.514;13.438;2023-03-13T22:20:11;98845.24;;;12.55;68.13
38452;BME280;24231;52.514;13.438;2023-03-13T22:22:38;98844.68;;;12.39;68.65
38452;BME280;24231;52.514;13.438;2023-03-13T22:25:07;98836.26;;;12.76;67.65
38452;BME280;24231;52.514;13.438;2023-03-13T22:28:14;98830.41;;;13.13;65.78
38452;BME280;24231;52.514;13.438;2023-03-13T22:30:43;98829.97;;;12.44;67.95
38452;BME280;24231;52.514;13.438;2023-03-13T22:33:10;98834.03;;;12.29;69.57
38452;BME280;24231;52.514;13.438;2023-03-13T22:35:37;98824.82;;;13.00;66.22
38452;BME280;24231;52.514;13.438;2023-03-13T22:38:05;98818.53;;;12.71;67.14
38452;BME280;24231;52.514;13.438;2023-03-13T22:40:33;98822.27;;;12.69;66.88
38452;BME280;24231;52.514;13.438;2023-03-13T22:43:01;98833.93;;;12.30;69.21
38452;BME280;24231;52.514;13.438;2023-03-13T22:45:29;98825.99;;;13.10;65.99
38452;BME280;24231;52.514;13.438;2023-03-13T22:47:56;98817.88;;;13.29;64.31
38452;BME280;24231;52.514;13.438;2023-03-13T22:50:23;98812.76;;;13.02;65.22
38452;BME280;24231;52.514;13.438;2023-03-13T22:52:51;98822.01;;;12.84;65.52
38452;BME280;24231;52.514;13.438;2023-03-13T22:55:18;98822.86;;;12.64;66.42
38452;BME280;24231;52.514;13.438;2023-03-13T22:57:44;98808.90;;;13.16;64.66
38452;BME280;24231;52.514;13.438;2023-03-13T23:00:22;98800.86;;;13.53;63.48
38452;BME280;24231;52.514;13.438;2023-03-13T23:02:49;98803.80;;;13.92;61.77
38452;BME280;24231;52.514;13.438;2023-03-13T23:05:16;98815.52;;;12.86;65.14
38452;BME280;24231;52.514;13.438;2023-03-13T23:07:44;98813.93;;;12.31;67.65
38452;BME280;24231;52.514;13.438;2023-03-13T23:10:12;98798.98;;;13.73;62.61
38452;BME280;24231;52.514;13.438;2023-03-13T23:12:39;98814.36;;;12.53;66.68
38452;BME280;24231;52.514;13.438;2023-03-13T23:15:08;98819.88;;;13.29;63.52
38452;BME280;24231;52.514;13.438;2023-03-13T23:17:36;98819.11;;;12.77;65.79
38452;BME280;24231;52.514;13.438;2023-03-13T23:20:05;98818.20;;;12.95;64.31
38452;BME280;24231;52.514;13.438;2023-03-13T23:22:32;98806.76;;;12.88;64.91
38452;BME280;24231;52.514;13.438;2023-03-13T23:24:59;98803.64;;;12.68;65.87
38452;BME280;24231;52.514;13.438;2023-03-13T23:27:27;98793.78;;;13.25;63.61
38452;BME280;24231;52.514;13.438;2023-03-13T23:29:54;98789.98;;;12.30;67.16
38452;BME280;24231;52.514;13.438;2023-03-13T23:32:21;98784.40;;;12.89;65.38
38452;BME280;24231;52.514;13.438;2023-03-13T23:34:48;98782.99;;;12.90;63.84
38452;BME280;24231;52.514;13.438;2023-03-13T23:37:16;98783.21;;;12.62;65.68
38452;BME280;24231;52.514;13.438;2023-03-13T23:39:42;98789.44;;;12.01;67.99
38452;BME280;24231;52.514;13.438;2023-03-13T23:42:10;98794.69;;;12.35;66.92
38452;BME280;24231;52.514;13.438;2023-03-13T23:44:37;98797.87;;;13.19;63.92
38452;BME280;24231;52.514;13.438;2023-03-13T23:47:04;98786.74;;;12.20;67.20
38452;BME280;24231;52.514;13.438;2023-03-13T23:49:31;98778.11;;;12.34;66.70
38452;BME280;24231;52.514;13.438;2023-03-13T23:51:58;98778.37;;;11.72;69.64
38452;BME280;24231;52.514;13.438;2023-03-13T23:54:25;98782.02;;;11.90;68.75
38452;BME280;24231;52.514;13.438;2023-03-13T23:56:52;98791.93;;;12.37;67.70
38452;BME280;24231;52.514;13.438;2023-03-13T23:59:20;98785.10;;;11.87;68.29
